Time;durP1;ratioP1;P1;durP2;ratioP2;P2;SDS_P1;SDS_P2;PMS_P1;PMS_P2;Temp;Humidity;BMP_temperature;BMP_pressure;BME280_temperature;BME280_humidity;BME280_pressure;Samples;Min_cycle;Max_cycle;Signal;HPM_P1;HPM_P2
2022/06/30 00:00:38;;;;;;;5.32;4.82;;;;;;;21.49;80.34;98292.69;5033303;27;102995;-67
2022/06/30 00:03:06;;;;;;;5.67;4.80;;;;;;;21.32;81.43;98281.34;5029703;27;103934;-67
2022/06/30 00:05:37;;;;;;;6.57;5.30;;;;;;;21.22;81.78;98288.84;5029372;27;103987;-68
2022/06/30 00:08:05;;;;;;;6.27;5.67;;;;;;;21.53;80.34;98283.22;5032673;27;103292;-68
2022/06/30 00:10:33;;;;;;;4.80;4.30;;;;;;;21.92;78.34;98285.53;5031543;27;102785;-67
2022/06/30 00:13:01;;;;;;;5.35;4.85;;;;;;;21.83;78.09;98283.97;5034753;27;102681;-67
2022/06/30 00:15:29;;;;;;;4.70;4.30;;;;;;;21.78;79.16;98294.47;5029198;27;104349;-67
2022/06/30 00:17:57;;;;;;;4.97;4.47;;;;;;;21.89;78.28;98294.00;5029681;27;103255;-68
2022/06/30 00:20:25;;;;;;;4.22;3.83;;;;;;;22.03;76.99;98290.41;5033615;27;102687;-67
2022/06/30 00:22:56;;;;;;;3.50;3.20;;;;;;;22.13;76.01;98284.69;5029059;27;103566;-68
2022/06/30 00:25:24;;;;;;;3.83;3.53;;;;;;;22.13;76.26;98290.91;5032367;27;104023;-68
2022/06/30 00:27:54;;;;;;;5.33;4.30;;;;;;;22.01;76.74;98289.75;5032673;27;103236;-68
2022/06/30 00:30:26;;;;;;;5.28;4.82;;;;;;;21.31;80.59;98295.78;5030564;27;102695;-68
2022/06/30 00:32:54;;;;;;;6.63;5.82;;;;;;;20.79;83.82;98287.00;5033636;27;103848;-68
2022/06/30 00:35:22;;;;;;;6.03;5.53;;;;;;;20.77;84.65;98291.75;5027665;27;103098;-68
2022/06/30 00:37:53;;;;;;;7.65;6.68;;;;;;;20.19;88.78;98289.75;5026095;27;103436;-68
2022/06/30 00:40:23;;;;;;;7.80;7.10;;;;;;;20.27;88.64;98288.91;5025785;27;102705;-67
2022/06/30 00:42:50;;;;;;;8.02;6.97;;;;;;;20.52;87.41;98293.81;5027897;27;104055;-67
2022/06/30 00:45:18;;;;;;;6.53;5.93;;;;;;;20.85;86.14;98282.75;5033657;27;103714;-68
2022/06/30 00:47:46;;;;;;;6.32;5.82;;;;;;;21.23;84.03;98285.16;5027197;27;103316;-68
2022/06/30 00:50:14;;;;;;;3.83;3.53;;;;;;;21.52;81.30;98280.75;5028948;27;102742;-67
2022/06/30 00:52:44;;;;;;;4.20;3.90;;;;;;;21.66;80.26;98271.78;5027747;27;103934;-68
2022/06/30 00:55:15;;;;;;;5.17;4.77;;;;;;;21.69;79.84;98276.78;5007861;27;104494;-68
2022/06/30 00:57:45;;;;;;;4.30;3.90;;;;;;;21.75;79.59;98265.28;5027776;27;103397;-68
2022/06/30 01:00:14;;;;;;;5.57;5.05;;;;;;;21.59;79.29;98270.88;5026658;27;102794;-68
2022/06/30 01:02:42;;;;;;;5.05;4.60;;;;;;;21.61;79.31;98271.53;5020384;27;103190;-67
2022/06/30 01:05:10;;;;;;;4.10;3.80;;;;;;;21.69;78.81;98279.47;5025839;27;103260;-68
2022/06/30 01:07:40;;;;;;;5.00;4.57;;;;;;;21.54;79.42;98278.69;5029878;27;103307;-67
2022/06/30 01:12:56;;;;;;;8.37;7.57;;;;;;;20.74;84.32;98276.81;5025187;27;104130;-67
2022/06/30 01:15:24;;;;;;;9.23;8.33;;;;;;;20.39;87.31;98266.81;5015134;27;103107;-67
2022/06/30 01:17:52;;;;;;;8.20;7.40;;;;;;;20.60;86.71;98268.78;5027324;27;102971;-67
2022/06/30 01:20:27;;;;;;;6.25;5.75;;;;;;;21.02;84.20;98274.34;5026942;27;102681;-67
2022/06/30 01:22:56;;;;;;;8.30;7.50;;;;;;;20.92;85.24;98273.75;5010646;27;103220;-67
2022/06/30 01:25:25;;;;;;;9.60;8.70;;;;;;;20.30;88.37;98262.53;5026042;27;103215;-68
2022/06/30 01:27:54;;;;;;;10.50;9.50;;;;;;;19.91;90.84;98262.69;5025900;27;103242;-67
2022/06/30 01:30:23;;;;;;;11.25;10.20;;;;;;;19.75;92.34;98257.47;5011392;27;103004;-67
2022/06/30 01:32:51;;;;;;;9.20;8.40;;;;;;;20.09;90.19;98260.53;5030188;27;102732;-68
2022/06/30 01:35:19;;;;;;;9.47;8.57;;;;;;;20.24;89.82;98266.78;5024799;27;103796;-68
2022/06/30 01:37:50;;;;;;;10.05;9.02;;;;;;;20.01;90.28;98257.09;5024342;27;103224;-68
2022/06/30 01:40:21;;;;;;;9.90;8.98;;;;;;;20.20;89.55;98268.13;5028268;27;102789;-68
2022/06/30 01:42:49;;;;;;;9.95;8.95;;;;;;;20.14;89.73;98259.97;5011420;27;102798;-68
2022/06/30 01:45:18;;;;;;;7.35;6.75;;;;;;;20.37;89.40;98257.28;5011740;27;104379;-67
2022/06/30 01:47:46;;;;;;;5.80;5.30;;;;;;;20.78;86.19;98255.81;5016509;27;104159;-68
2022/06/30 01:50:16;;;;;;;6.57;6.07;;;;;;;20.84;85.07;98255.06;5033353;27;102880;-67
2022/06/30 01:52:44;;;;;;;5.50;5.10;;;;;;;20.97;84.07;98251.75;5032253;27;103959;-67
2022/06/30 01:55:12;;;;;;;7.27;6.67;;;;;;;20.91;83.13;98252.47;5028253;27;104221;-67
2022/06/30 01:57:44;;;;;;;7.53;6.80;;;;;;;20.88;83.12;98261.75;5012044;27;103515;-67
2022/06/30 02:00:15;;;;;;;6.82;6.22;;;;;;;20.75;83.82;98256.19;5030333;27;102902;-67
2022/06/30 02:02:43;;;;;;;8.23;7.53;;;;;;;20.61;85.31;98255.16;5027142;27;103249;-67
2022/06/30 02:05:12;;;;;;;6.55;6.00;;;;;;;20.79;84.54;98257.50;5030982;27;103913;-68
2022/06/30 02:07:40;;;;;;;9.85;8.32;;;;;;;20.31;86.32;98252.63;5028313;27;104857;-67
2022/06/30 02:10:11;;;;;;;10.43;9.32;;;;;;;19.72;90.64;98249.78;5029870;27;102780;-67
2022/06/30 02:12:48;;;;;;;10.93;9.93;;;;;;;19.52;94.04;98256.59;5031517;27;104085;-68
2022/06/30 02:15:21;;;;;;;9.87;9.07;;;;;;;19.93;91.14;98247.25;5028801;27;104580;-67
2022/06/30 02:17:53;;;;;;;9.80;9.00;;;;;;;19.89;91.17;98254.00;5015074;27;104704;-67
2022/06/30 02:20:23;;;;;;;11.02;10.13;;;;;;;19.75;91.48;98256.63;5036488;27;102719;-68
2022/06/30 02:22:54;;;;;;;8.45;7.82;;;;;;;20.09;90.94;98249.81;5033074;27;103489;-67
2022/06/30 02:25:23;;;;;;;8.10;7.40;;;;;;;20.36;88.63;98250.25;5031791;27;105802;-67
2022/06/30 02:27:51;;;;;;;7.50;6.90;;;;;;;20.47;87.08;98242.56;5015256;27;104129;-67
2022/06/30 02:30:21;;;;;;;7.68;7.07;;;;;;;20.55;86.13;98239.81;5015138;27;102943;-68
2022/06/30 02:32:52;;;;;;;6.20;5.70;;;;;;;20.62;85.54;98248.78;5029979;27;103063;-68
2022/06/30 02:35:20;;;;;;;5.18;4.78;;;;;;;20.73;83.88;98247.50;5029024;27;103928;-68
2022/06/30 02:37:48;;;;;;;6.90;6.40;;;;;;;20.77;83.53;98246.91;5032588;27;103205;-67
2022/06/30 02:40:16;;;;;;;4.90;4.50;;;;;;;20.81;82.59;98245.53;5029127;27;102688;-68
2022/06/30 02:42:44;;;;;;;6.93;6.33;;;;;;;20.80;82.42;98251.09;5030722;27;104952;-67
2022/06/30 02:45:12;;;;;;;5.60;5.10;;;;;;;20.76;82.48;98250.66;5031180;27;104163;-68
2022/06/30 02:47:45;;;;;;;6.43;5.93;;;;;;;20.70;82.89;98256.75;5029539;27;103279;-68
2022/06/30 02:50:14;;;;;;;6.83;6.23;;;;;;;20.66;83.21;98252.75;5029480;27;103079;-68
2022/06/30 02:52:42;;;;;;;5.35;4.95;;;;;;;20.72;82.91;98241.28;5032519;27;104310;-67
2022/06/30 02:55:11;;;;;;;5.63;5.22;;;;;;;20.72;82.94;98246.66;5029565;27;103756;-68
2022/06/30 02:57:39;;;;;;;6.25;5.75;;;;;;;20.79;82.30;98241.38;5028800;27;103143;-68
2022/06/30 03:00:09;;;;;;;5.47;4.97;;;;;;;20.82;82.23;98243.69;5030210;27;103030;-67
2022/06/30 03:02:37;;;;;;;5.03;4.60;;;;;;;20.84;81.97;98244.34;5029475;27;104106;-68
2022/06/30 03:05:09;;;;;;;5.30;4.85;;;;;;;20.86;81.54;98247.66;5029839;27;104058;-67
2022/06/30 03:07:37;;;;;;;6.05;5.65;;;;;;;20.78;81.74;98239.72;5029957;27;103183;-68
2022/06/30 03:10:05;;;;;;;5.40;5.00;;;;;;;20.71;82.07;98239.63;5012892;27;104659;-67
2022/06/30 03:12:33;;;;;;;5.90;5.45;;;;;;;20.76;81.55;98244.44;5030270;27;102778;-69
2022/06/30 03:15:01;;;;;;;5.32;4.93;;;;;;;20.70;81.85;98239.81;5029411;27;103034;-66
2022/06/30 03:17:29;;;;;;;4.80;4.50;;;;;;;20.73;81.71;98242.13;5028863;27;103558;-68
2022/06/30 03:19:57;;;;;;;5.78;4.97;;;;;;;20.71;81.31;98246.84;5007294;27;102767;-68
2022/06/30 03:22:26;;;;;;;4.63;4.30;;;;;;;20.74;81.26;98244.59;5029743;27;103189;-72
2022/06/30 03:24:54;;;;;;;5.85;5.35;;;;;;;20.58;81.65;98244.78;5029844;27;104117;-72
2022/06/30 03:27:22;;;;;;;3.95;3.65;;;;;;;20.68;80.91;98252.59;5026842;27;103420;-70
2022/06/30 03:29:50;;;;;;;4.00;3.70;;;;;;;20.74;80.11;98251.84;5029798;27;102854;-71
2022/06/30 03:32:18;;;;;;;4.47;4.07;;;;;;;20.77;79.99;98238.06;5030923;27;104285;-71
2022/06/30 03:34:48;;;;;;;4.88;4.40;;;;;;;20.54;81.69;98248.03;5023146;27;104439;-71
2022/06/30 03:37:16;;;;;;;5.93;5.40;;;;;;;20.07;83.25;98249.13;5029684;27;103222;-71
2022/06/30 03:39:45;;;;;;;4.45;4.10;;;;;;;20.29;83.29;98243.94;5028409;27;102733;-70
2022/06/30 03:42:13;;;;;;;4.82;4.43;;;;;;;20.40;82.26;98247.03;5030134;27;102847;-71
2022/06/30 03:44:41;;;;;;;4.47;4.07;;;;;;;20.51;80.73;98240.38;5032331;27;103731;-70
2022/06/30 03:47:10;;;;;;;4.07;3.75;;;;;;;20.53;80.93;98246.38;5014854;27;104241;-70
2022/06/30 03:49:38;;;;;;;3.90;3.60;;;;;;;20.53;80.51;98238.31;5027269;27;103179;-70
2022/06/30 03:52:06;;;;;;;3.97;3.67;;;;;;;20.61;79.75;98243.59;5026872;27;103875;-69
2022/06/30 03:54:34;;;;;;;4.15;3.85;;;;;;;20.61;80.11;98239.06;5027549;27;103257;-70
2022/06/30 03:57:04;;;;;;;4.50;4.20;;;;;;;20.60;80.36;98239.25;5027747;27;103222;-70
2022/06/30 03:59:36;;;;;;;6.07;5.10;;;;;;;20.41;80.82;98242.47;5024005;27;102867;-70
2022/06/30 04:02:05;;;;;;;4.60;4.20;;;;;;;20.39;81.95;98236.47;5027019;27;104034;-69
2022/06/30 04:04:33;;;;;;;3.60;3.30;;;;;;;20.54;80.48;98237.31;5026597;27;103251;-69
2022/06/30 04:07:01;;;;;;;3.42;3.22;;;;;;;20.67;80.08;98238.31;5023812;27;103176;-68
2022/06/30 04:09:29;;;;;;;4.17;3.77;;;;;;;20.73;79.48;98242.13;5010722;27;103023;-68
2022/06/30 04:11:57;;;;;;;5.80;5.30;;;;;;;20.64;80.25;98244.06;5030259;27;103644;-69
2022/06/30 04:14:26;;;;;;;5.00;4.50;;;;;;;20.64;80.78;98245.91;5008510;27;103361;-68
2022/06/30 04:16:54;;;;;;;6.72;5.72;;;;;;;20.52;81.77;98245.53;5025702;27;103198;-70
2022/06/30 04:19:22;;;;;;;5.97;5.07;;;;;;;20.65;82.00;98245.75;5011471;27;102767;-69
2022/06/30 04:21:50;;;;;;;6.82;6.20;;;;;;;20.66;82.52;98244.69;5012407;27;104230;-69
2022/06/30 04:24:18;;;;;;;6.90;6.20;;;;;;;20.70;82.29;98251.38;5026280;27;103257;-69
2022/06/30 04:26:46;;;;;;;8.98;7.60;;;;;;;20.44;84.36;98248.31;5028453;27;103432;-70
2022/06/30 04:29:14;;;;;;;8.43;7.68;;;;;;;20.34;85.19;98249.59;5012517;27;103032;-71
2022/06/30 04:34:28;;;;;;;10.32;9.35;;;;;;;19.96;89.31;98252.25;4979314;27;103253;-70
2022/06/30 04:36:56;;;;;;;11.20;10.10;;;;;;;19.93;90.40;98249.91;5024367;27;103501;-70
2022/06/30 04:39:24;;;;;;;11.05;10.18;;;;;;;20.05;90.04;98251.16;5003470;27;102784;-70
2022/06/30 04:41:51;;;;;;;10.05;9.15;;;;;;;20.34;89.78;98246.91;5026364;27;102597;-70
2022/06/30 04:44:19;;;;;;;8.48;7.75;;;;;;;20.66;87.34;98251.94;5028369;27;103253;-70
2022/06/30 04:46:49;;;;;;;9.80;8.97;;;;;;;20.73;86.97;98242.13;5009713;27;103912;-70
2022/06/30 04:49:18;;;;;;;10.43;9.45;;;;;;;20.68;87.94;98233.81;5027392;27;102764;-70
2022/06/30 04:51:46;;;;;;;11.60;10.60;;;;;;;20.50;89.19;98236.00;5028472;27;103811;-70
2022/06/30 04:54:14;;;;;;;9.33;8.53;;;;;;;20.82;88.16;98235.66;5023612;27;103340;-70
2022/06/30 04:56:42;;;;;;;6.63;6.13;;;;;;;21.15;85.71;98234.22;5024162;27;103474;-70
2022/06/30 04:59:09;;;;;;;8.70;8.00;;;;;;;21.14;85.83;98229.88;5024755;27;102947;-70
2022/06/30 05:01:37;;;;;;;7.20;6.57;;;;;;;21.34;84.76;98220.19;5028759;27;103675;-71
2022/06/30 05:04:08;;;;;;;11.27;10.20;;;;;;;20.84;88.00;98228.22;5024607;27;103313;-70
2022/06/30 05:06:36;;;;;;;6.82;6.30;;;;;;;21.33;85.41;98223.88;5028187;27;104577;-70
2022/06/30 05:09:03;;;;;;;9.00;8.30;;;;;;;21.51;83.84;98220.78;5026226;27;104572;-70
2022/06/30 05:11:35;;;;;;;8.75;7.85;;;;;;;21.48;83.47;98231.06;5027609;27;104248;-70
2022/06/30 05:14:03;;;;;;;9.75;8.75;;;;;;;21.50;83.35;98234.41;5024811;27;103272;-69
2022/06/30 05:16:31;;;;;;;8.82;7.93;;;;;;;21.66;82.67;98235.00;5024583;27;103602;-70
2022/06/30 05:18:58;;;;;;;7.80;7.10;;;;;;;21.62;82.40;98233.72;5021309;27;103174;-70
2022/06/30 05:21:28;;;;;;;8.73;7.90;;;;;;;21.79;82.13;98237.81;5030674;27;102736;-71
2022/06/30 05:26:41;;;;;;;7.25;6.57;;;;;;;21.93;81.09;98236.94;5027524;27;102983;-70
2022/06/30 05:29:09;;;;;;;7.22;6.63;;;;;;;22.15;80.01;98240.41;5026826;27;102840;-71
2022/06/30 05:31:37;;;;;;;6.05;5.55;;;;;;;22.33;79.28;98232.72;5022518;27;103909;-71
2022/06/30 05:34:05;;;;;;;5.50;5.10;;;;;;;22.46;79.25;98235.47;5028487;27;103411;-71
2022/06/30 05:36:34;;;;;;;6.60;6.10;;;;;;;22.53;79.12;98236.38;5023835;27;104286;-71
2022/06/30 05:39:02;;;;;;;6.17;5.67;;;;;;;22.58;78.73;98232.25;5030423;27;103292;-79
2022/06/30 05:41:30;;;;;;;6.75;6.25;;;;;;;22.69;78.01;98231.72;5008611;27;104391;-71
2022/06/30 05:43:58;;;;;;;6.47;5.97;;;;;;;22.73;76.55;98233.84;5029796;27;103255;-71
2022/06/30 05:46:26;;;;;;;6.60;5.93;;;;;;;22.88;76.93;98228.28;5029825;27;103244;-71
2022/06/30 05:48:54;;;;;;;6.20;5.70;;;;;;;22.87;76.83;98230.19;5029649;27;103072;-71
2022/06/30 05:51:22;;;;;;;7.00;6.40;;;;;;;23.01;76.68;98226.53;5028798;27;102905;-70
2022/06/30 05:53:51;;;;;;;6.38;5.88;;;;;;;23.15;76.36;98232.78;5024816;27;103997;-71
2022/06/30 05:56:19;;;;;;;5.75;5.25;;;;;;;23.27;76.38;98225.75;5030038;27;103209;-71
2022/06/30 05:58:49;;;;;;;9.70;8.32;;;;;;;22.57;78.94;98234.09;5032765;27;102680;-70
2022/06/30 06:01:18;;;;;;;5.68;5.18;;;;;;;23.09;77.12;98229.03;5029112;27;104378;-70
2022/06/30 06:03:46;;;;;;;7.03;6.43;;;;;;;23.19;76.47;98220.56;5030955;27;104104;-70
2022/06/30 06:06:13;;;;;;;7.68;6.97;;;;;;;23.12;77.27;98217.03;5032703;27;103195;-70
2022/06/30 06:08:41;;;;;;;8.80;7.55;;;;;;;23.04;76.69;98222.59;5031883;27;102659;-70
2022/06/30 06:11:13;;;;;;;9.13;7.97;;;;;;;22.98;77.18;98226.06;5036437;27;103824;-70
2022/06/30 06:13:41;;;;;;;6.45;5.95;;;;;;;23.28;76.94;98226.59;5032182;27;104545;-70
2022/06/30 06:16:08;;;;;;;6.90;6.00;;;;;;;23.55;75.20;98229.19;5032991;27;103208;-70
2022/06/30 06:18:36;;;;;;;8.07;7.27;;;;;;;23.41;75.19;98227.50;5008975;27;102699;-71
2022/06/30 06:21:04;;;;;;;7.05;6.40;;;;;;;23.55;75.33;98223.78;5033295;27;103912;-71
2022/06/30 06:23:50;;;;;;;7.22;5.78;;;;;;;23.93;74.28;98221.38;5035777;27;104154;-71
2022/06/30 06:26:20;;;;;;;7.53;6.82;;;;;;;23.73;74.53;98219.69;5029888;27;103289;-70
2022/06/30 06:29:06;;;;;;;6.07;5.50;;;;;;;23.86;73.61;98217.81;5031593;27;102803;-70
2022/06/30 06:31:36;;;;;;;6.80;6.20;;;;;;;24.16;72.51;98231.78;5031958;27;104019;-70
2022/06/30 06:34:05;;;;;;;7.37;6.67;;;;;;;24.01;72.62;98223.03;5033290;27;103431;-70
2022/06/30 06:36:33;;;;;;;7.13;6.43;;;;;;;24.04;72.39;98217.22;5032668;27;103499;-70
2022/06/30 06:39:01;;;;;;;9.63;7.70;;;;;;;23.87;74.07;98222.19;5028155;27;103046;-70
2022/06/30 06:41:31;;;;;;;7.00;6.40;;;;;;;24.28;71.96;98213.09;5031485;27;102688;-70
2022/06/30 06:43:59;;;;;;;7.13;6.40;;;;;;;24.27;70.55;98216.84;5032790;27;103918;-71
2022/06/30 06:46:27;;;;;;;5.72;5.30;;;;;;;24.65;70.16;98210.53;5027917;27;103234;-71
2022/06/30 06:48:58;;;;;;;6.63;6.10;;;;;;;24.56;69.83;98211.78;5029310;27;102751;-70
2022/06/30 06:51:26;;;;;;;7.93;5.90;;;;;;;24.49;70.46;98204.75;5026964;27;103124;-70
2022/06/30 06:53:55;;;;;;;5.95;5.45;;;;;;;24.58;70.52;98206.19;5011988;27;103923;-70
2022/06/30 06:56:23;;;;;;;6.40;5.20;;;;;;;25.05;69.40;98205.03;5022126;27;103343;-70
2022/06/30 06:59:00;;;;;;;5.20;4.70;;;;;;;25.36;68.67;98207.78;5027276;27;103081;-70
2022/06/30 07:01:32;;;;;;;5.87;5.23;;;;;;;25.14;69.39;98206.44;5029612;27;102865;-70
2022/06/30 07:04:01;;;;;;;5.90;5.30;;;;;;;25.33;67.60;98213.63;5028362;27;103421;-71
2022/06/30 07:06:29;;;;;;;5.20;4.70;;;;;;;25.42;68.17;98208.78;5033633;27;103352;-72
2022/06/30 07:08:59;;;;;;;5.23;4.73;;;;;;;26.05;66.38;98209.66;5012097;27;102852;-70
2022/06/30 07:11:27;;;;;;;5.80;5.20;;;;;;;25.81;65.25;98208.56;5022740;27;104099;-68
2022/06/30 07:13:55;;;;;;;5.50;5.00;;;;;;;25.91;66.07;98209.72;5032787;27;103287;-68
2022/06/30 07:16:24;;;;;;;6.70;5.25;;;;;;;25.59;67.50;98213.50;5026259;27;103189;-68
2022/06/30 07:18:52;;;;;;;6.23;4.93;;;;;;;25.59;66.74;98205.41;5019336;27;103045;-68
2022/06/30 07:21:20;;;;;;;6.30;5.22;;;;;;;25.93;65.66;98210.38;5032189;27;103631;-68
2022/06/30 07:23:48;;;;;;;5.43;4.67;;;;;;;26.22;65.12;98214.31;5033288;27;103813;-68
2022/06/30 07:26:16;;;;;;;4.97;4.57;;;;;;;26.41;64.07;98215.19;5027308;27;103275;-68
2022/06/30 07:28:44;;;;;;;3.80;3.50;;;;;;;26.83;63.37;98206.25;5035407;27;103030;-68
2022/06/30 07:31:23;;;;;;;7.05;4.93;;;;;;;26.74;63.39;98212.97;5032642;27;103617;-68
2022/06/30 07:33:53;;;;;;;5.90;4.78;;;;;;;26.84;62.05;98218.72;5040126;27;104177;-68
2022/06/30 07:36:21;;;;;;;6.28;5.28;;;;;;;26.66;63.91;98205.13;5027733;27;104455;-67
2022/06/30 07:38:49;;;;;;;4.43;4.13;;;;;;;27.21;62.29;98213.25;5013491;27;102843;-68
2022/06/30 07:41:18;;;;;;;5.88;5.13;;;;;;;26.59;61.68;98214.38;5005285;27;104239;-68
2022/06/30 07:43:46;;;;;;;6.20;5.05;;;;;;;26.97;61.41;98207.75;5028865;27;103733;-67
2022/06/30 07:46:15;;;;;;;5.68;5.10;;;;;;;27.49;60.98;98210.84;5030438;27;102986;-67
2022/06/30 07:48:43;;;;;;;6.33;5.40;;;;;;;27.69;59.87;98214.09;5033846;27;103265;-67
2022/06/30 07:51:12;;;;;;;5.20;4.70;;;;;;;28.04;59.04;98204.16;5023319;27;102844;-68
2022/06/30 07:53:40;;;;;;;4.97;4.35;;;;;;;28.55;57.84;98211.63;5033782;27;104488;-67
2022/06/30 07:56:08;;;;;;;5.07;4.67;;;;;;;28.58;57.14;98204.91;5026697;27;103191;-68
2022/06/30 07:58:36;;;;;;;6.55;5.13;;;;;;;28.63;57.51;98196.91;5032637;27;102747;-68
2022/06/30 08:01:04;;;;;;;5.20;4.70;;;;;;;29.09;56.28;98191.38;5027406;27;103633;-72
2022/06/30 08:03:38;;;;;;;4.95;4.55;;;;;;;29.44;56.23;98193.19;5024524;27;103984;-72
2022/06/30 08:06:07;;;;;;;5.28;4.50;;;;;;;29.23;56.00;98190.06;5029572;27;103786;-72
2022/06/30 08:08:36;;;;;;;6.23;5.00;;;;;;;29.48;56.16;98184.28;5010041;27;102844;-71
2022/06/30 08:11:04;;;;;;;5.18;4.68;;;;;;;30.12;53.97;98179.44;5027932;27;103008;-72
2022/06/30 08:13:33;;;;;;;5.00;4.60;;;;;;;30.02;53.68;98180.09;5032961;27;104363;-72
2022/06/30 08:16:01;;;;;;;7.32;4.63;;;;;;;29.06;54.44;98175.53;5031680;27;103206;-72
2022/06/30 08:18:29;;;;;;;4.93;4.13;;;;;;;30.23;54.60;98184.78;5034277;27;102903;-72
2022/06/30 08:20:59;;;;;;;6.00;4.30;;;;;;;30.29;52.75;98178.34;5035094;27;104392;-72
2022/06/30 08:23:27;;;;;;;5.45;4.70;;;;;;;30.49;52.06;98185.19;5034117;27;103240;-72
2022/06/30 08:25:56;;;;;;;6.63;4.53;;;;;;;30.26;52.34;98180.75;5029956;27;103323;-72
2022/06/30 08:28:24;;;;;;;4.00;3.70;;;;;;;31.64;50.08;98183.16;5036228;27;103760;-72
2022/06/30 08:30:52;;;;;;;4.53;3.80;;;;;;;31.53;48.85;98184.94;5032122;27;102815;-72
2022/06/30 08:33:20;;;;;;;4.57;3.47;;;;;;;32.11;47.78;98188.81;5028329;27;103607;-73
2022/06/30 08:35:48;;;;;;;6.40;4.05;;;;;;;32.30;46.79;98181.84;5026564;27;103208;-72
2022/06/30 08:38:26;;;;;;;4.53;3.33;;;;;;;32.59;46.51;98180.41;5026883;27;103916;-72
2022/06/30 08:43:43;;;;;;;5.05;3.53;;;;;;;32.13;47.99;98171.06;5014393;27;104283;-73
2022/06/30 08:46:12;;;;;;;5.63;3.88;;;;;;;32.86;44.55;98174.84;5029588;27;103799;-73
2022/06/30 08:48:40;;;;;;;4.27;3.60;;;;;;;32.60;45.85;98168.41;5016461;27;102738;-73
2022/06/30 08:51:09;;;;;;;4.20;3.80;;;;;;;32.94;45.74;98170.75;5008137;27;104411;-72
2022/06/30 08:53:41;;;;;;;4.45;3.88;;;;;;;33.30;45.33;98177.22;5030579;27;103258;-72
2022/06/30 08:56:12;;;;;;;3.95;3.45;;;;;;;33.89;43.77;98172.16;5028923;27;103201;-71
2022/06/30 08:58:41;;;;;;;5.10;3.67;;;;;;;33.87;43.20;98164.22;5017715;27;102845;-70
2022/06/30 09:01:09;;;;;;;4.30;3.90;;;;;;;32.95;43.61;98158.75;5035485;27;103968;-71
2022/06/30 09:03:38;;;;;;;4.60;4.00;;;;;;;30.73;46.19;98165.66;5032840;27;103881;-71
2022/06/30 09:06:07;;;;;;;5.00;3.67;;;;;;;31.29;47.27;98148.09;5035999;27;103230;-72
2022/06/30 09:08:34;;;;;;;4.63;3.92;;;;;;;32.72;45.39;98149.06;5034979;27;102963;-72
2022/06/30 09:11:03;;;;;;;3.63;3.17;;;;;;;34.53;41.29;98139.53;5036795;27;102792;-72
2022/06/30 09:13:41;;;;;;;6.75;3.67;;;;;;;33.73;42.39;98136.56;5013279;27;103280;-72
2022/06/30 09:16:09;;;;;;;3.88;3.47;;;;;;;33.00;44.43;98147.81;5033612;27;103288;-72
2022/06/30 09:18:38;;;;;;;3.70;3.27;;;;;;;33.69;45.49;98140.91;5036181;27;102955;-73
2022/06/30 09:21:16;;;;;;;4.65;3.60;;;;;;;33.54;41.70;98138.16;5036174;27;102940;-73
2022/06/30 09:23:45;;;;;;;5.57;3.70;;;;;;;33.68;40.02;98139.28;5016286;27;104298;-72
2022/06/30 09:26:19;;;;;;;4.07;3.67;;;;;;;33.17;43.08;98142.97;5030751;27;103347;-73
2022/06/30 09:28:51;;;;;;;3.43;3.10;;;;;;;33.33;41.21;98135.63;5039437;27;102768;-72
2022/06/30 09:31:42;;;;;;;3.22;2.78;;;;;;;34.11;41.94;98142.59;5032501;27;104263;-72
2022/06/30 09:34:16;;;;;;;4.07;2.67;;;;;;;34.22;39.36;98134.09;5033287;27;104105;-72
2022/06/30 09:36:45;;;;;;;5.43;3.38;;;;;;;34.13;39.03;98130.28;5033161;27;103250;-73
2022/06/30 09:39:15;;;;;;;4.05;3.25;;;;;;;33.63;41.79;98128.31;5033590;27;102638;-72
2022/06/30 09:41:45;;;;;;;4.20;3.10;;;;;;;33.47;40.09;98123.88;5035455;27;102607;-74
2022/06/30 09:44:23;;;;;;;3.92;3.10;;;;;;;33.24;43.90;98124.38;5034565;27;103283;-73
2022/06/30 09:46:59;;;;;;;4.85;3.40;;;;;;;33.88;40.61;98121.22;5037101;27;103199;-72
2022/06/30 09:49:32;;;;;;;3.67;2.83;;;;;;;33.51;41.42;98116.78;5038567;27;104035;-72
2022/06/30 09:52:25;;;;;;;3.50;2.60;;;;;;;35.20;38.52;98117.09;5033640;27;103816;-71
2022/06/30 09:55:06;;;;;;;4.60;2.95;;;;;;;35.63;37.11;98110.78;5022724;27;103226;-71
2022/06/30 09:57:44;;;;;;;5.07;3.28;;;;;;;35.71;37.52;98109.34;5031684;27;104255;-71
2022/06/30 10:00:16;;;;;;;5.65;3.03;;;;;;;35.82;37.53;98108.97;5036077;27;102766;-71
2022/06/30 10:02:47;;;;;;;5.05;3.10;;;;;;;33.41;39.44;98105.81;5031393;27;103843;-71
2022/06/30 10:05:17;;;;;;;4.35;3.05;;;;;;;33.47;39.04;98106.63;5032732;27;104292;-71
2022/06/30 10:07:46;;;;;;;3.92;3.05;;;;;;;32.26;41.22;98106.94;5031340;27;103263;-72
2022/06/30 10:10:16;;;;;;;3.70;3.30;;;;;;;32.79;40.33;98105.88;5031543;27;102750;-71
2022/06/30 10:12:45;;;;;;;3.88;3.13;;;;;;;34.57;40.55;98105.81;5025827;27;103126;-72
2022/06/30 10:15:22;;;;;;;5.03;3.03;;;;;;;33.58;43.25;98106.41;5033103;27;104010;-73
2022/06/30 10:17:54;;;;;;;4.18;2.85;;;;;;;34.87;37.22;98105.69;5032570;27;103696;-74
2022/06/30 10:20:22;;;;;;;4.68;3.20;;;;;;;33.84;39.23;98104.50;5030005;27;102957;-72
2022/06/30 10:22:51;;;;;;;3.38;2.90;;;;;;;33.63;38.32;98109.13;5028198;27;102738;-70
2022/06/30 10:25:39;;;;;;;3.53;2.80;;;;;;;34.86;38.37;98100.50;5013884;27;104032;-71
2022/06/30 10:28:07;;;;;;;4.85;2.92;;;;;;;34.34;36.38;98098.16;5027882;27;103407;-71
2022/06/30 10:30:47;;;;;;;4.47;2.73;;;;;;;34.36;38.10;98098.69;5022272;27;102882;-71
2022/06/30 10:33:20;;;;;;;4.53;2.83;;;;;;;35.18;35.71;98089.09;5007306;27;103871;-71
2022/06/30 10:35:52;;;;;;;5.25;2.50;;;;;;;35.36;36.58;98091.19;5031793;27;103284;-72
2022/06/30 10:38:30;;;;;;;3.30;2.70;;;;;;;35.16;37.25;98089.38;5028678;27;103178;-70
2022/06/30 10:41:07;;;;;;;3.45;2.58;;;;;;;34.02;38.72;98083.94;5036335;27;102621;-71
2022/06/30 10:43:35;;;;;;;4.35;3.13;;;;;;;33.69;37.83;98086.16;5032476;27;104256;-73
2022/06/30 10:46:06;;;;;;;4.97;3.08;;;;;;;34.44;38.94;98087.19;5012465;27;104358;-74
2022/06/30 10:48:53;;;;;;;5.47;3.10;;;;;;;31.53;41.32;98077.66;5016717;27;104338;-73
2022/06/30 10:51:22;;;;;;;2.97;2.77;;;;;;;33.11;41.01;98072.91;5022065;27;102747;-74
2022/06/30 10:53:54;;;;;;;3.65;3.05;;;;;;;33.92;37.44;98073.81;5033800;27;103991;-74
2022/06/30 10:56:23;;;;;;;4.13;2.80;;;;;;;34.94;37.03;98081.53;5036124;27;103290;-74
2022/06/30 10:59:11;;;;;;;4.10;3.00;;;;;;;34.84;36.96;98070.56;5028367;27;103476;-74
2022/06/30 11:02:19;;;;;;;4.75;3.35;;;;;;;34.99;36.44;98060.63;5012089;27;102940;-73
2022/06/30 11:04:48;;;;;;;3.73;2.93;;;;;;;35.11;38.16;98056.47;5030028;27;104453;-74
2022/06/30 11:07:20;;;;;;;3.47;2.80;;;;;;;35.14;37.66;98057.84;5030553;27;103551;-74
2022/06/30 11:10:21;;;;;;;3.45;2.78;;;;;;;34.76;39.35;98054.72;5014952;27;104250;-74
2022/06/30 11:13:10;;;;;;;4.07;3.50;;;;;;;35.48;35.25;98047.72;5029388;27;102777;-72
2022/06/30 11:15:55;;;;;;;9.13;6.80;;;;;;;35.25;36.14;98040.19;5034585;27;103035;-72
2022/06/30 11:18:26;;;;;;;3.47;2.70;;;;;;;35.87;36.24;98044.94;5033018;27;103021;-72
2022/06/30 11:20:55;;;;;;;4.73;2.90;;;;;;;34.93;36.36;98041.47;5028458;27;103052;-72
2022/06/30 11:23:24;;;;;;;3.92;3.00;;;;;;;33.28;36.79;98046.13;5018983;27;102982;-72
2022/06/30 11:28:42;;;;;;;5.38;3.00;;;;;;;33.86;36.96;98043.94;5024475;27;103977;-74
2022/06/30 11:31:30;;;;;;;3.30;3.00;;;;;;;33.91;35.46;98039.28;5031207;27;103188;-72
2022/06/30 11:34:02;;;;;;;6.22;3.20;;;;;;;32.48;37.82;98036.53;5031705;27;102809;-72
2022/06/30 11:36:31;;;;;;;3.15;2.60;;;;;;;34.57;36.53;98031.78;5031104;27;103722;-71
2022/06/30 11:39:01;;;;;;;4.90;2.88;;;;;;;35.35;36.54;98020.88;5039150;27;103041;-71
2022/06/30 11:44:16;;;;;;;3.70;3.10;;;;;;;34.72;36.04;98034.44;5014763;27;102811;-73
2022/06/30 11:46:51;;;;;;;3.90;3.40;;;;;;;34.30;36.01;98029.34;5033071;27;102815;-72
2022/06/30 11:49:21;;;;;;;3.78;2.90;;;;;;;34.86;35.41;98013.53;5015976;27;103333;-73
2022/06/30 11:51:50;;;;;;;4.07;2.90;;;;;;;34.52;35.71;98015.31;5036457;27;103774;-73
2022/06/30 11:54:23;;;;;;;3.90;3.30;;;;;;;34.51;36.14;98021.88;5015126;27;102782;-72